Time;durP1;ratioP1;P1;durP2;ratioP2;P2;SDS_P1;SDS_P2;PMS_P1;PMS_P2;Temp;Humidity;BMP_temperature;BMP_pressure;BME280_temperature;BME280_humidity;BME280_pressure;Samples;Min_cycle;Max_cycle;Signal;HPM_P1;HPM_P2
2020/12/03 05:55:48;;;;;;;18.60;8.93;;;;;;;18.58;48.81;94845.53;5071424;27;20595;-64
2020/12/03 06:27:41;;;;;;;42.33;24.73;;;;;;;6.95;43.58;94825.59;5038628;27;1873254;-78
2020/12/03 06:30:14;;;;;;;52.50;26.13;;;;;;;5.71;46.33;94834.69;5061204;28;20296;-79
2020/12/03 06:32:48;;;;;;;53.77;25.60;;;;;;;4.75;48.85;94836.56;5045915;28;261572;-79
2020/12/03 06:35:34;;;;;;;57.40;26.97;;;;;;;4.29;50.49;94834.44;5054493;28;20283;-80
2020/12/03 06:38:24;;;;;;;49.97;22.60;;;;;;;3.81;51.97;94835.13;5066931;28;21146;-79
2020/12/03 06:41:04;;;;;;;48.13;24.00;;;;;;;3.38;53.58;94838.31;5066551;28;20651;-81
2020/12/03 06:43:36;;;;;;;46.70;23.52;;;;;;;3.05;55.87;94846.44;5062576;28;20245;-80
2020/12/03 06:46:23;;;;;;;46.22;22.40;;;;;;;2.83;55.90;94839.25;5067251;28;20211;-80
2020/12/03 06:49:01;;;;;;;50.10;23.83;;;;;;;2.73;57.41;94847.38;5068018;28;20171;-80
2020/12/03 06:52:09;;;;;;;42.25;22.92;;;;;;;2.69;57.70;94848.25;5066723;28;20167;-81
2020/12/03 06:55:13;;;;;;;31.90;18.42;;;;;;;2.36;58.06;94866.84;5014491;28;20200;-78
2020/12/03 06:58:12;;;;;;;39.28;17.83;;;;;;;2.23;59.34;94857.84;5068169;28;20564;-79
2020/12/03 07:01:36;;;;;;;38.42;17.05;;;;;;;1.83;60.60;94851.47;5066921;28;20175;-81
2020/12/03 07:04:44;;;;;;;32.53;17.00;;;;;;;2.12;60.14;94854.63;5039045;28;20235;-80
2020/12/03 07:07:32;;;;;;;35.72;16.80;;;;;;;2.24;59.49;94845.47;4959159;28;70679;-79
2020/12/03 07:09:59;;;;;;;32.67;17.27;;;;;;;2.30;60.43;94854.84;5008432;28;20393;-80
2020/12/03 07:13:02;;;;;;;34.10;18.27;;;;;;;2.19;60.21;94866.63;5009137;28;20192;-80
2020/12/03 07:15:50;;;;;;;33.72;15.57;;;;;;;2.25;60.89;94870.75;5025768;28;20176;-80
2020/12/03 07:18:24;;;;;;;34.45;16.92;;;;;;;2.23;61.52;94872.88;5017864;28;20271;-81
2020/12/03 07:21:11;;;;;;;33.28;15.35;;;;;;;2.16;60.94;94868.00;5026153;28;20245;-79
2020/12/03 07:23:55;;;;;;;31.85;16.13;;;;;;;2.24;61.13;94869.94;5025324;28;20560;-80
2020/12/03 07:26:30;;;;;;;28.42;15.52;;;;;;;2.33;61.30;94865.56;5023739;28;20240;-81
2020/12/03 07:28:55;;;;;;;33.10;15.35;;;;;;;1.96;62.64;94845.44;5008889;28;20559;-79
2020/12/03 07:31:31;;;;;;;33.60;16.33;;;;;;;1.80;62.89;94850.22;4992989;28;20212;-80
2020/12/03 07:34:37;;;;;;;32.28;15.50;;;;;;;1.82;63.27;94858.59;4983148;28;119713;-80
2020/12/03 07:37:18;;;;;;;31.17;16.30;;;;;;;1.84;63.37;94853.03;5007890;28;20184;-79
2020/12/03 07:39:43;;;;;;;29.92;15.18;;;;;;;2.24;61.61;94848.88;5013132;28;20220;-80
2020/12/03 07:42:20;;;;;;;29.77;16.03;;;;;;;2.24;62.42;94856.78;4997070;28;20276;-80
2020/12/03 07:44:53;;;;;;;30.58;14.27;;;;;;;2.05;64.40;94862.16;5013383;28;20247;-80
2020/12/03 07:47:37;;;;;;;33.38;16.48;;;;;;;2.21;62.56;94865.28;4996569;28;20317;-80
2020/12/03 07:50:21;;;;;;;29.52;14.57;;;;;;;2.53;62.67;94861.78;5013917;28;20173;-80
2020/12/03 07:52:47;;;;;;;29.05;15.20;;;;;;;2.65;62.15;94864.69;5014100;28;20600;-79
2020/12/03 07:55:22;;;;;;;26.67;13.83;;;;;;;2.86;61.24;94861.59;4996389;28;20232;-80
2020/12/03 07:57:54;;;;;;;28.00;14.20;;;;;;;2.87;60.85;94858.69;5014129;28;20670;-79
2020/12/03 08:00:41;;;;;;;36.45;18.45;;;;;;;2.95;61.15;94873.03;5013843;28;20203;-79
2020/12/03 08:03:08;;;;;;;37.25;15.52;;;;;;;2.77;61.93;94877.38;5014135;28;20660;-79
2020/12/03 08:05:40;;;;;;;32.60;15.57;;;;;;;3.07;59.99;94872.50;5013764;28;20259;-78
2020/12/03 08:08:23;;;;;;;29.02;14.23;;;;;;;3.06;60.54;94870.97;5013896;28;20176;-77
2020/12/03 08:10:50;;;;;;;34.60;15.40;;;;;;;3.07;60.92;94875.16;5013667;28;20177;-78
2020/12/03 08:13:35;;;;;;;33.58;16.95;;;;;;;3.10;60.78;94869.28;5012474;28;20211;-80
2020/12/03 08:16:05;;;;;;;31.35;15.43;;;;;;;3.16;59.50;94854.91;5012426;28;20177;-80
2020/12/03 08:18:45;;;;;;;29.40;15.90;;;;;;;3.21;59.50;94862.72;5012463;28;20251;-80
2020/12/03 08:21:12;;;;;;;39.50;16.33;;;;;;;3.33;59.86;94872.72;5012644;28;20571;-73
2020/12/03 08:23:37;;;;;;;30.52;14.38;;;;;;;3.25;59.26;94868.94;5013533;28;20181;-76
2020/12/03 08:26:03;;;;;;;30.53;15.03;;;;;;;3.39;58.30;94864.41;5012151;28;20304;-78
2020/12/03 08:28:32;;;;;;;36.17;14.50;;;;;;;3.35;59.31;94844.94;5012481;28;20268;-79
2020/12/03 08:30:57;;;;;;;30.42;14.20;;;;;;;3.38;60.12;94873.41;5012076;28;20196;-80
2020/12/03 08:33:27;;;;;;;31.73;16.33;;;;;;;3.40;60.92;94868.59;5013422;28;20255;-80
2020/12/03 08:35:56;;;;;;;26.77;14.13;;;;;;;3.48;60.12;94842.53;5013107;28;20181;-80
2020/12/03 08:38:24;;;;;;;27.15;14.05;;;;;;;3.45;60.92;94860.56;5012043;28;20648;-79
2020/12/03 08:40:51;;;;;;;30.17;15.00;;;;;;;3.75;60.47;94874.09;5011924;28;20174;-77
2020/12/03 08:43:17;;;;;;;37.88;15.82;;;;;;;3.78;58.76;94849.75;5013444;28;20181;-78
2020/12/03 08:45:53;;;;;;;28.70;14.43;;;;;;;3.95;57.83;94854.34;5011748;28;20610;-78
2020/12/03 08:48:26;;;;;;;29.90;13.45;;;;;;;3.85;58.31;94868.56;5011757;28;20204;-79
2020/12/03 08:50:56;;;;;;;32.72;15.10;;;;;;;4.11;58.36;94860.00;5010995;28;20253;-78
2020/12/03 08:53:22;;;;;;;36.63;16.60;;;;;;;4.25;57.22;94861.47;5013224;28;20185;-78
2020/12/03 08:55:47;;;;;;;42.97;17.73;;;;;;;4.30;56.84;94851.84;5012982;28;20623;-78
2020/12/03 08:58:13;;;;;;;31.50;16.03;;;;;;;4.23;56.10;94847.00;5013025;28;20555;-77
2020/12/03 09:00:42;;;;;;;37.17;16.80;;;;;;;4.29;56.67;94866.94;4995302;28;20201;-78
2020/12/03 09:03:12;;;;;;;37.38;18.55;;;;;;;4.43;57.76;94858.88;5011391;28;20562;-78
2020/12/03 09:05:39;;;;;;;39.88;17.00;;;;;;;4.54;57.12;94838.22;5011122;28;20205;-78
2020/12/03 09:08:05;;;;;;;38.83;16.87;;;;;;;4.82;56.20;94842.16;5011459;28;20181;-77
2020/12/03 09:10:32;;;;;;;45.10;17.67;;;;;;;5.00;56.66;94858.88;4979012;28;20626;-78
2020/12/03 09:12:58;;;;;;;33.07;15.77;;;;;;;5.21;56.72;94867.75;4995394;28;20246;-78
2020/12/03 09:15:23;;;;;;;32.70;15.63;;;;;;;5.15;55.40;94857.63;5011528;28;20662;-78
2020/12/03 09:17:51;;;;;;;34.87;16.23;;;;;;;5.39;54.41;94843.91;4994740;28;20200;-79
2020/12/03 09:20:17;;;;;;;36.42;15.48;;;;;;;5.60;53.52;94844.06;4994940;28;20255;-78
2020/12/03 09:22:42;;;;;;;39.63;17.57;;;;;;;5.29;54.75;94851.09;5011318;28;20212;-76
2020/12/03 09:25:09;;;;;;;36.30;17.53;;;;;;;5.63;54.83;94856.69;4988281;28;20189;-78
2020/12/03 09:27:38;;;;;;;39.90;18.90;;;;;;;5.81;53.73;94837.00;5012117;28;20223;-78
2020/12/03 09:30:04;;;;;;;38.17;18.63;;;;;;;6.16;53.64;94847.53;5012001;28;20630;-78
2020/12/03 09:32:29;;;;;;;43.47;19.03;;;;;;;6.21;52.21;94837.53;5013595;28;20623;-77
2020/12/03 09:34:55;;;;;;;42.73;20.77;;;;;;;6.25;51.75;94837.69;5008571;28;20224;-76
2020/12/03 09:37:21;;;;;;;41.10;19.93;;;;;;;6.17;52.96;94841.16;5010591;28;20184;-77
2020/12/03 09:39:46;;;;;;;42.03;19.57;;;;;;;6.29;52.26;94834.09;5012171;28;20619;-76
2020/12/03 09:42:13;;;;;;;37.83;19.43;;;;;;;6.23;52.59;94834.56;5010118;28;20224;-77
2020/12/03 09:44:39;;;;;;;42.50;20.63;;;;;;;6.16;53.18;94819.16;5010558;28;20266;-77
2020/12/03 09:47:11;;;;;;;37.70;18.23;;;;;;;6.27;53.41;94830.19;5007356;28;20636;-77
2020/12/03 09:49:40;;;;;;;32.67;16.60;;;;;;;6.22;52.41;94825.06;5006898;28;20256;-77
2020/12/03 09:52:08;;;;;;;39.70;18.87;;;;;;;6.05;54.09;94824.03;5007427;28;20557;-77
2020/12/03 09:54:34;;;;;;;49.77;19.23;;;;;;;6.48;53.03;94815.13;4992030;28;20585;-78
2020/12/03 09:56:59;;;;;;;36.20;17.53;;;;;;;6.79;51.32;94820.09;4992165;28;20628;-78
2020/12/03 09:59:25;;;;;;;27.83;15.03;;;;;;;6.92;51.17;94805.03;4992003;28;20170;-78
2020/12/03 10:02:07;;;;;;;38.03;16.80;;;;;;;6.93;51.00;94825.16;5007107;28;20218;-78
2020/12/03 10:04:47;;;;;;;33.80;16.47;;;;;;;6.80;52.52;94812.91;5006201;28;20272;-78
2020/12/03 10:07:43;;;;;;;28.47;14.70;;;;;;;7.19;51.54;94810.94;5007374;28;20728;-77
2020/12/03 10:10:19;;;;;;;29.27;15.27;;;;;;;7.48;49.95;94807.41;5010761;28;31451;-76
2020/12/03 10:12:54;;;;;;;26.00;14.17;;;;;;;6.99;50.78;94802.63;4990185;28;20732;-77
2020/12/03 10:15:53;;;;;;;28.40;15.63;;;;;;;7.12;50.14;94792.84;4991052;28;20600;-77
2020/12/03 10:18:21;;;;;;;30.80;15.93;;;;;;;7.29;48.22;94795.34;4991979;28;20564;-77
2020/12/03 10:20:51;;;;;;;43.27;17.37;;;;;;;7.09;50.18;94802.25;4990433;28;20657;-78
2020/12/03 10:23:38;;;;;;;31.87;16.13;;;;;;;6.93;51.07;94785.34;4990395;28;20679;-78
2020/12/03 10:26:15;;;;;;;30.77;15.87;;;;;;;6.73;51.37;94799.38;4990426;28;20662;-78
2020/12/03 10:28:52;;;;;;;33.27;16.33;;;;;;;6.64;50.53;94791.47;4990704;28;20564;-78
2020/12/03 10:31:17;;;;;;;43.90;17.90;;;;;;;5.91;53.64;94791.66;4990558;28;20620;-78
2020/12/03 10:33:47;;;;;;;34.43;16.23;;;;;;;6.16;52.87;94768.00;4990485;28;20588;-78
2020/12/03 10:36:22;;;;;;;36.03;17.73;;;;;;;6.22;53.18;94764.06;4990647;28;20550;-78
2020/12/03 10:38:48;;;;;;;37.93;17.57;;;;;;;5.81;53.49;94768.13;4991303;28;20604;-78
2020/12/03 10:41:14;;;;;;;34.67;17.30;;;;;;;5.77;54.77;94756.59;4990502;28;20600;-78
2020/12/03 10:43:43;;;;;;;31.13;16.00;;;;;;;5.72;54.91;94731.03;4990651;28;20631;-79
2020/12/03 10:46:13;;;;;;;30.83;16.53;;;;;;;5.95;54.62;94754.69;4990637;28;20639;-78
2020/12/03 10:48:45;;;;;;;40.13;16.83;;;;;;;6.03;54.94;94761.84;4990467;28;20584;-79
2020/12/03 10:51:10;;;;;;;30.97;16.47;;;;;;;5.75;56.51;94750.84;4990705;28;20591;-79
2020/12/03 10:53:37;;;;;;;32.70;16.33;;;;;;;5.67;57.05;94756.94;5006717;28;20601;-78
2020/12/03 10:56:06;;;;;;;34.00;17.00;;;;;;;5.53;56.87;94736.72;4991438;28;20178;-79
2020/12/03 10:59:17;;;;;;;34.77;16.57;;;;;;;5.55;56.61;94745.13;4991841;28;20596;-78
2020/12/03 11:01:42;;;;;;;34.80;16.83;;;;;;;5.83;56.46;94745.50;4989453;28;20593;-78
2020/12/03 11:04:09;;;;;;;34.83;16.83;;;;;;;5.72;56.83;94739.00;4989634;28;20994;-78
2020/12/03 11:06:35;;;;;;;35.03;17.83;;;;;;;5.69;57.06;94734.34;4989304;28;20213;-78
2020/12/03 11:09:01;;;;;;;39.87;18.13;;;;;;;5.61;57.60;94737.78;4989551;28;21033;-77
2020/12/03 11:11:35;;;;;;;37.00;19.17;;;;;;;5.68;57.25;94735.44;4989458;28;20221;-77
2020/12/03 11:14:01;;;;;;;35.43;18.57;;;;;;;5.51;57.85;94733.63;4992767;28;20572;-77
2020/12/03 11:16:29;;;;;;;39.80;19.53;;;;;;;5.55;57.92;94731.09;4992853;28;20651;-78
2020/12/03 11:18:55;;;;;;;41.47;19.60;;;;;;;5.55;57.89;94725.81;4976913;28;20738;-77
2020/12/03 11:21:26;;;;;;;37.50;18.23;;;;;;;5.32;57.86;94720.72;4992849;28;20604;-79
2020/12/03 11:24:23;;;;;;;40.27;18.43;;;;;;;5.42;56.31;94726.78;4993028;28;20174;-78
2020/12/03 11:26:48;;;;;;;51.10;19.70;;;;;;;5.28;57.40;94711.09;4992840;28;21538;-78
2020/12/03 11:29:15;;;;;;;36.60;18.70;;;;;;;5.36;58.34;94707.66;4992917;28;20686;-78
2020/12/03 11:31:41;;;;;;;42.80;18.93;;;;;;;5.19;59.07;94710.34;4957184;28;20413;-78
2020/12/03 11:34:06;;;;;;;43.83;20.07;;;;;;;5.11;59.41;94703.19;4976439;28;21174;-78
2020/12/03 11:36:34;;;;;;;36.03;17.57;;;;;;;5.34;59.23;94691.31;4992400;28;20703;-78
2020/12/03 11:39:01;;;;;;;37.00;18.33;;;;;;;5.14;60.12;94698.03;4988060;28;20186;-78
2020/12/03 11:42:17;;;;;;;35.33;17.57;;;;;;;5.16;59.79;94695.88;4999806;28;20190;-78
2020/12/03 11:44:34;;;;;;;32.73;17.83;;;;;;;5.24;60.21;94678.41;5001034;28;20977;-76
2020/12/03 11:49:43;;;;;;;39.90;18.43;;;;;;;5.45;58.21;94678.50;5013926;28;20648;-79
2020/12/03 11:52:16;;;;;;;36.97;17.53;;;;;;;5.37;58.58;94682.72;5014206;28;20575;-77
2020/12/03 11:54:45;;;;;;;38.10;17.60;;;;;;;5.38;59.23;94673.69;5012684;28;20170;-78
2020/12/03 11:57:15;;;;;;;38.70;17.87;;;;;;;5.16;59.44;94687.13;5012909;28;20639;-78
2020/12/03 11:59:41;;;;;;;37.28;17.73;;;;;;;5.02;60.43;94682.03;5013849;28;20585;-78
2020/12/03 12:02:08;;;;;;;39.73;18.87;;;;;;;5.24;60.01;94673.88;5014156;28;20181;-78
2020/12/03 12:12:22;;;;;;;29.90;15.63;;;;;;;5.63;57.16;94660.69;5013898;28;20578;-76
2020/12/03 12:14:47;;;;;;;35.20;17.33;;;;;;;5.76;57.81;94654.38;5013608;28;20180;-78
2020/12/03 12:17:14;;;;;;;35.37;17.33;;;;;;;5.82;58.16;94661.81;5013865;28;20623;-77
2020/12/03 12:19:41;;;;;;;36.43;17.63;;;;;;;5.89;57.93;94666.59;5013487;28;20256;-78
2020/12/03 12:22:09;;;;;;;30.80;16.53;;;;;;;5.83;58.49;94671.31;5013663;28;21153;-78
2020/12/03 12:24:34;;;;;;;31.50;14.90;;;;;;;5.88;57.86;94673.00;5013572;28;21168;-78
2020/12/03 12:27:00;;;;;;;33.90;17.50;;;;;;;6.04;57.97;94666.09;5013249;28;20741;-78
2020/12/03 12:29:26;;;;;;;30.57;16.87;;;;;;;5.95;58.68;94656.63;5013478;28;20256;-77
2020/12/03 12:31:51;;;;;;;31.93;15.80;;;;;;;5.95;58.70;94649.47;5011767;28;20224;-78
2020/12/03 12:34:17;;;;;;;34.63;16.60;;;;;;;5.95;59.06;94659.28;5013688;28;20169;-77
2020/12/03 12:36:42;;;;;;;31.83;15.90;;;;;;;5.78;58.99;94649.50;5013088;28;20180;-78
2020/12/03 12:39:08;;;;;;;29.10;15.17;;;;;;;5.80;59.11;94642.03;5013338;28;20211;-78
2020/12/03 12:41:33;;;;;;;32.47;14.73;;;;;;;5.74;58.53;94633.50;5013110;28;20645;-78
2020/12/03 12:43:59;;;;;;;40.13;18.20;;;;;;;5.62;59.19;94635.28;5013381;28;20188;-77
2020/12/03 12:46:25;;;;;;;35.27;15.77;;;;;;;5.89;59.37;94639.34;5013000;28;20550;-78
2020/12/03 12:48:51;;;;;;;36.40;17.43;;;;;;;5.78;60.01;94644.22;5011551;28;20184;-78
2020/12/03 12:51:17;;;;;;;28.37;15.77;;;;;;;5.71;60.46;94633.34;5007362;28;20585;-78
2020/12/03 12:53:43;;;;;;;31.83;16.43;;;;;;;5.93;58.80;94646.34;5001694;28;20564;-78
2020/12/03 12:56:09;;;;;;;31.60;15.60;;;;;;;5.94;58.99;94644.47;5003859;28;20619;-78
2020/12/03 12:58:35;;;;;;;31.57;15.83;;;;;;;5.94;59.06;94655.06;5003684;28;20160;-78
2020/12/03 13:01:01;;;;;;;32.80;17.77;;;;;;;6.01;58.43;94636.81;4999209;28;20611;-78
2020/12/03 13:03:26;;;;;;;30.97;15.83;;;;;;;6.17;58.88;94650.25;5002455;28;20723;-78
2020/12/03 13:05:55;;;;;;;31.80;15.97;;;;;;;6.20;59.23;94649.63;5001598;28;20185;-77
2020/12/03 13:08:20;;;;;;;34.53;17.10;;;;;;;6.11;59.10;94639.06;4997538;28;20264;-77
2020/12/03 13:10:46;;;;;;;31.77;15.23;;;;;;;6.12;59.74;94642.50;5007329;28;83582;-78
2020/12/03 13:13:11;;;;;;;34.70;17.30;;;;;;;6.05;60.63;94643.78;5010923;28;20267;-78
2020/12/03 13:15:37;;;;;;;30.30;15.20;;;;;;;5.83;61.15;94634.22;5012720;28;20169;-78
2020/12/03 13:18:02;;;;;;;29.27;14.93;;;;;;;5.98;60.24;94642.75;5012720;28;20215;-78
2020/12/03 13:20:28;;;;;;;33.50;15.87;;;;;;;6.06;61.25;94642.72;5012442;28;20193;-79
2020/12/03 13:22:53;;;;;;;39.43;18.13;;;;;;;5.83;61.58;94631.56;5012648;28;20667;-78
2020/12/03 13:25:19;;;;;;;31.17;16.50;;;;;;;5.81;61.76;94641.72;5012161;28;20227;-79
2020/12/03 13:27:45;;;;;;;35.90;18.17;;;;;;;5.95;60.99;94624.81;5012589;28;20643;-80
2020/12/03 13:30:10;;;;;;;30.63;15.53;;;;;;;5.83;61.11;94628.13;5012146;28;20199;-79
2020/12/03 13:32:35;;;;;;;36.77;15.93;;;;;;;5.66;61.76;94613.13;5012575;28;20698;-78
2020/12/03 13:35:01;;;;;;;27.97;14.00;;;;;;;5.76;61.76;94625.22;5011656;28;20169;-79
2020/12/03 13:37:26;;;;;;;27.40;14.47;;;;;;;5.74;60.66;94633.50;5012579;28;20200;-79
2020/12/03 13:39:52;;;;;;;26.73;13.87;;;;;;;5.69;60.13;94628.38;5012503;28;20188;-77
2020/12/03 13:42:18;;;;;;;26.90;14.27;;;;;;;5.78;59.79;94625.66;5012611;28;20215;-78
2020/12/03 13:44:44;;;;;;;25.80;13.67;;;;;;;5.74;59.55;94627.44;5011933;28;20620;-77
2020/12/03 13:47:10;;;;;;;28.97;14.57;;;;;;;5.92;59.48;94631.56;5011758;28;20283;-79
2020/12/03 13:49:35;;;;;;;30.30;13.50;;;;;;;6.05;59.06;94637.72;5011861;28;20184;-77
2020/12/03 13:52:01;;;;;;;26.93;14.77;;;;;;;6.17;59.27;94634.34;5012172;28;20204;-77
2020/12/03 13:54:27;;;;;;;28.90;13.43;;;;;;;6.00;59.68;94630.72;5012759;28;20192;-78
2020/12/03 13:56:52;;;;;;;29.83;14.47;;;;;;;6.04;58.88;94636.94;5012043;28;20204;-80
2020/12/03 13:59:18;;;;;;;25.57;13.97;;;;;;;6.13;58.86;94636.13;5012031;28;20667;-78
2020/12/03 14:01:43;;;;;;;34.03;14.37;;;;;;;6.08;60.42;94629.13;5011544;28;20180;-79
2020/12/03 14:04:09;;;;;;;28.70;14.17;;;;;;;6.01;60.05;94624.34;5010657;28;20215;-78
2020/12/03 14:06:34;;;;;;;30.37;14.57;;;;;;;5.98;60.14;94626.84;5011843;28;20315;-78
2020/12/03 14:09:01;;;;;;;26.93;14.37;;;;;;;5.96;60.15;94624.53;5011746;28;20176;-78
2020/12/03 14:11:26;;;;;;;26.40;15.70;;;;;;;5.86;60.95;94616.91;5011869;28;20177;-79
2020/12/03 14:13:53;;;;;;;31.67;16.37;;;;;;;5.70;61.66;94615.91;5012031;28;20975;-79
2020/12/03 14:16:18;;;;;;;24.63;13.83;;;;;;;5.82;61.00;94626.59;5010543;28;20243;-79
2020/12/03 14:18:44;;;;;;;24.73;13.37;;;;;;;5.79;60.26;94625.38;5011497;28;21169;-78
2020/12/03 14:21:09;;;;;;;24.90;12.90;;;;;;;5.50;59.87;94631.44;5011944;28;20204;-80
2020/12/03 14:23:35;;;;;;;28.13;12.27;;;;;;;5.81;59.85;94625.03;5011450;28;20223;-79
2020/12/03 14:26:01;;;;;;;23.83;12.33;;;;;;;5.95;59.24;94625.63;5011424;28;20225;-79
2020/12/03 14:28:26;;;;;;;25.07;13.07;;;;;;;6.02;59.03;94620.59;5011746;28;20230;-78
2020/12/03 14:30:54;;;;;;;26.80;14.17;;;;;;;5.93;60.44;94606.59;5011640;28;20256;-78
2020/12/03 14:33:20;;;;;;;24.67;13.23;;;;;;;5.69;61.12;94619.66;5011364;28;20200;-78
2020/12/03 14:35:45;;;;;;;24.53;14.00;;;;;;;5.65;60.54;94619.50;5011288;28;21123;-78
2020/12/03 14:38:11;;;;;;;31.63;14.90;;;;;;;5.74;61.00;94596.41;5001409;28;20220;-78
2020/12/03 14:40:36;;;;;;;24.20;13.00;;;;;;;5.65;60.80;94608.13;5002270;28;20246;-78
2020/12/03 14:43:02;;;;;;;32.30;15.43;;;;;;;5.66;60.69;94607.03;5012286;28;20189;-78
2020/12/03 14:45:27;;;;;;;26.20;13.00;;;;;;;5.63;60.57;94595.22;5011263;28;20755;-78
2020/12/03 14:47:53;;;;;;;32.33;14.33;;;;;;;5.45;61.46;94610.44;5013160;28;20169;-80
2020/12/03 14:50:22;;;;;;;28.93;13.47;;;;;;;5.12;61.19;94612.91;5015095;28;20723;-79
2020/12/03 14:52:58;;;;;;;26.23;12.90;;;;;;;5.34;61.77;94614.53;5015356;28;20181;-80
2020/12/03 14:55:25;;;;;;;30.03;13.27;;;;;;;5.48;60.70;94609.00;5015855;28;20620;-79
2020/12/03 14:57:51;;;;;;;25.37;13.73;;;;;;;5.55;60.27;94603.97;5035011;28;21176;-78
2020/12/03 15:00:19;;;;;;;28.43;14.23;;;;;;;5.29;61.57;94604.88;5034666;28;20684;-80
2020/12/03 15:02:44;;;;;;;30.23;13.70;;;;;;;5.20;62.33;94613.94;5034852;28;20180;-77
2020/12/03 15:05:10;;;;;;;25.03;12.10;;;;;;;5.23;61.64;94622.03;5034796;28;20203;-79
2020/12/03 15:07:36;;;;;;;26.77;13.10;;;;;;;4.88;62.78;94610.78;5034648;28;20709;-78
2020/12/03 15:10:07;;;;;;;23.10;12.00;;;;;;;5.02;62.43;94606.06;5034852;28;20586;-78
2020/12/03 15:12:33;;;;;;;26.80;12.43;;;;;;;5.08;62.09;94611.19;5034547;28;20179;-78
2020/12/03 15:15:00;;;;;;;28.60;11.43;;;;;;;4.64;62.75;94619.22;5034787;28;20673;-79
2020/12/03 15:17:26;;;;;;;21.50;12.30;;;;;;;4.62;63.42;94620.63;5034345;28;20659;-78
2020/12/03 15:19:51;;;;;;;25.80;11.53;;;;;;;4.82;61.27;94622.59;5035035;28;20215;-79
2020/12/03 15:22:17;;;;;;;26.43;12.23;;;;;;;4.81;60.26;94601.75;5033079;28;20180;-80
2020/12/03 15:24:42;;;;;;;25.63;12.37;;;;;;;4.59;62.50;94613.31;5034573;28;20234;-79
2020/12/03 15:27:08;;;;;;;21.37;11.70;;;;;;;4.55;62.40;94609.75;5034343;28;20220;-79
2020/12/03 15:29:33;;;;;;;26.13;12.80;;;;;;;4.55;62.38;94618.47;5034559;28;20203;-79
2020/12/03 15:31:59;;;;;;;28.10;12.67;;;;;;;4.74;61.73;94612.81;5034488;28;20264;-80
2020/12/03 15:34:24;;;;;;;20.87;10.67;;;;;;;4.70;61.99;94596.03;5033268;28;20533;-80
2020/12/03 15:36:54;;;;;;;25.10;11.83;;;;;;;4.36;63.14;94597.63;5033172;28;20683;-79
2020/12/03 15:39:21;;;;;;;23.17;11.00;;;;;;;4.09;64.36;94604.00;5034126;28;20180;-80
2020/12/03 15:42:15;;;;;;;20.60;10.63;;;;;;;4.10;63.81;94596.88;5033145;28;20184;-79
2020/12/03 15:44:49;;;;;;;22.45;10.68;;;;;;;3.77;64.89;94601.81;5034103;28;20183;-80
2020/12/03 15:47:15;;;;;;;18.85;10.20;;;;;;;3.93;64.15;94585.19;5034027;28;20204;-79
2020/12/03 15:49:41;;;;;;;18.85;10.25;;;;;;;3.87;64.72;94593.56;5032686;28;20570;-80
2020/12/03 15:52:07;;;;;;;21.87;10.73;;;;;;;4.00;64.06;94597.16;5034341;28;20191;-79
2020/12/03 15:54:33;;;;;;;25.00;10.00;;;;;;;3.85;64.28;94601.78;5033844;28;20218;-80
2020/12/03 15:56:58;;;;;;;22.10;10.53;;;;;;;3.87;65.34;94593.56;5033991;28;20183;-79
2020/12/03 15:59:24;;;;;;;20.47;10.00;;;;;;;3.78;64.34;94583.00;5015012;28;20278;-80
2020/12/03 16:01:52;;;;;;;18.50;9.43;;;;;;;3.96;64.56;94599.63;5032674;28;20180;-79
2020/12/03 16:04:17;;;;;;;20.98;9.35;;;;;;;4.21;63.54;94587.53;5032428;28;20184;-80
2020/12/03 16:06:43;;;;;;;17.63;9.60;;;;;;;4.03;62.70;94596.53;5033945;28;20219;-79
2020/12/03 16:09:09;;;;;;;20.73;9.63;;;;;;;4.17;61.93;94597.16;5032272;28;20710;-79
2020/12/03 16:11:35;;;;;;;18.55;9.68;;;;;;;3.96;62.90;94597.00;5033685;28;20183;-80
2020/12/03 16:14:01;;;;;;;20.97;9.67;;;;;;;3.85;62.90;94582.53;5033355;28;20180;-80
2020/12/03 16:16:26;;;;;;;21.37;9.90;;;;;;;3.73;64.58;94591.06;5032105;28;20220;-80
2020/12/03 16:18:52;;;;;;;19.97;9.70;;;;;;;3.88;64.21;94597.78;5033622;28;20168;-80
2020/12/03 16:21:17;;;;;;;17.40;8.67;;;;;;;3.55;64.53;94600.81;5033477;28;20532;-80
2020/12/03 16:23:43;;;;;;;20.20;10.17;;;;;;;3.44;65.54;94602.97;5033700;28;20207;-80
2020/12/03 16:26:08;;;;;;;21.20;10.93;;;;;;;3.33;64.82;94569.25;5032125;28;20228;-80
2020/12/03 16:28:34;;;;;;;23.93;9.63;;;;;;;3.62;64.87;94606.41;5033209;28;20203;-79
2020/12/03 16:30:59;;;;;;;21.50;9.80;;;;;;;3.86;64.18;94602.56;5033041;28;20207;-79
2020/12/03 16:33:25;;;;;;;21.83;10.57;;;;;;;4.09;63.04;94608.50;5033454;28;20188;-80
2020/12/03 16:35:51;;;;;;;22.50;9.80;;;;;;;3.92;63.87;94614.53;5033141;28;20176;-80
2020/12/03 16:38:16;;;;;;;20.00;10.67;;;;;;;3.77;64.43;94617.66;5033267;28;20532;-77
2020/12/03 16:40:47;;;;;;;23.90;9.67;;;;;;;3.62;63.98;94608.28;5032966;28;20250;-79
2020/12/03 16:43:13;;;;;;;21.45;10.48;;;;;;;3.13;65.49;94612.78;5032049;28;20267;-79
2020/12/03 16:45:39;;;;;;;21.50;11.13;;;;;;;3.07;65.81;94619.25;5031246;28;20266;-78
2020/12/03 16:48:05;;;;;;;26.13;13.18;;;;;;;2.74;66.58;94611.63;5032817;28;20596;-79
2020/12/03 16:50:31;;;;;;;27.33;13.30;;;;;;;2.94;66.49;94612.22;5032875;28;20260;-80
2020/12/03 16:52:57;;;;;;;29.33;13.80;;;;;;;3.09;66.01;94619.75;5030736;28;20177;-78
2020/12/03 16:55:23;;;;;;;30.58;13.45;;;;;;;3.62;63.11;94621.47;5032845;28;20238;-75
2020/12/03 16:57:48;;;;;;;24.77;13.13;;;;;;;3.65;62.98;94615.59;5032745;28;20271;-77
2020/12/03 17:00:14;;;;;;;29.93;13.53;;;;;;;3.69;63.21;94598.81;5032735;28;20713;-77
2020/12/03 17:02:39;;;;;;;32.40;13.30;;;;;;;3.76;63.20;94600.22;5032699;28;20204;-77
2020/12/03 17:05:05;;;;;;;25.40;12.20;;;;;;;3.52;63.22;94608.56;5032711;28;20180;-79
2020/12/03 17:07:30;;;;;;;23.83;12.57;;;;;;;3.33;62.87;94604.31;5031242;28;20196;-78
2020/12/03 17:09:56;;;;;;;28.30;12.87;;;;;;;3.59;61.81;94596.47;5032032;28;20169;-78
2020/12/03 17:12:21;;;;;;;25.57;12.10;;;;;;;3.56;62.90;94588.41;5032530;28;20703;-79
2020/12/03 17:14:47;;;;;;;25.77;12.77;;;;;;;3.47;63.83;94600.78;5032465;28;20179;-78
2020/12/03 17:17:12;;;;;;;23.30;12.37;;;;;;;3.51;62.78;94599.09;5032712;28;20204;-79
2020/12/03 17:19:38;;;;;;;24.07;11.50;;;;;;;3.28;62.65;94598.41;5032084;28;20262;-74
2020/12/03 17:22:03;;;;;;;29.33;12.03;;;;;;;3.57;62.17;94592.59;5032444;28;20188;-74
2020/12/03 17:24:29;;;;;;;25.40;12.00;;;;;;;3.78;61.08;94590.16;5032206;28;20220;-74
2020/12/03 17:26:54;;;;;;;27.73;13.43;;;;;;;3.73;61.46;94596.34;5032109;28;20271;-75
2020/12/03 17:29:20;;;;;;;24.97;12.17;;;;;;;3.76;61.42;94595.75;5031622;28;20180;-75
2020/12/03 17:31:58;;;;;;;27.40;12.30;;;;;;;3.60;61.20;94579.56;5032156;28;20160;-74
2020/12/03 17:34:24;;;;;;;27.83;12.57;;;;;;;3.42;61.81;94584.03;5030633;28;20255;-75
2020/12/03 17:36:50;;;;;;;25.47;12.80;;;;;;;3.32;63.32;94573.75;5030925;28;20266;-74
2020/12/03 17:39:15;;;;;;;23.13;12.70;;;;;;;3.45;61.90;94586.03;5032077;28;20182;-76
2020/12/03 17:41:41;;;;;;;32.60;14.60;;;;;;;3.29;62.60;94584.91;5030002;28;20195;-76
2020/12/03 17:44:06;;;;;;;29.20;13.10;;;;;;;3.28;62.70;94585.97;5030785;28;20223;-74
2020/12/03 17:46:32;;;;;;;34.37;15.43;;;;;;;3.19;63.54;94583.31;5031466;28;20299;-75
2020/12/03 17:48:57;;;;;;;40.47;16.30;;;;;;;3.50;61.92;94589.63;5031859;28;20172;-76
2020/12/03 17:51:23;;;;;;;28.70;15.47;;;;;;;3.73;60.97;94593.72;5029668;28;20176;-77
2020/12/03 17:53:48;;;;;;;32.43;15.83;;;;;;;3.78;60.57;94571.66;5030720;28;20210;-76
2020/12/03 17:56:14;;;;;;;32.97;16.10;;;;;;;3.87;60.05;94581.16;5031583;28;20582;-75
2020/12/03 17:58:40;;;;;;;33.57;15.50;;;;;;;3.91;59.61;94568.09;5031618;28;20259;-75
2020/12/03 18:01:06;;;;;;;31.00;15.57;;;;;;;3.91;59.40;94560.94;5031097;28;20171;-76
2020/12/03 18:03:32;;;;;;;32.38;16.13;;;;;;;3.72;59.35;94558.59;5031488;28;20199;-75
2020/12/03 18:05:57;;;;;;;30.60;14.57;;;;;;;3.85;59.58;94569.31;5030531;28;20232;-76
2020/12/03 18:08:23;;;;;;;26.83;12.73;;;;;;;3.60;59.55;94578.78;5030257;28;20172;-77
2020/12/03 18:10:48;;;;;;;26.03;12.17;;;;;;;3.54;59.64;94567.59;5030375;28;20175;-78